sensor_id;sensor_type;location;lat;lon;timestamp;temperature;humidity
57058;DHT22;74999;52.848;6.748;2024-02-15T00:01:21;11.60;99.90
57058;DHT22;74999;52.848;6.748;2024-02-15T00:03:47;11.70;99.90
57058;DHT22;74999;52.848;6.748;2024-02-15T00:06:13;11.90;99.90
57058;DHT22;74999;52.848;6.748;2024-02-15T00:08:39;11.70;99.90
57058;DHT22;74999;52.848;6.748;2024-02-15T00:11:05;11.70;99.90
57058;DHT22;74999;52.848;6.748;2024-02-15T00:13:30;11.70;99.90
57058;DHT22;74999;52.848;6.748;2024-02-15T00:15:58;11.70;99.90
57058;DHT22;74999;52.848;6.748;2024-02-15T00:18:25;11.70;99.90
57058;DHT22;74999;52.848;6.748;2024-02-15T00:20:50;11.70;99.90
57058;DHT22;74999;52.848;6.748;2024-02-15T00:23:16;11.70;99.90
57058;DHT22;74999;52.848;6.748;2024-02-15T00:25:42;11.60;99.90
57058;DHT22;74999;52.848;6.748;2024-02-15T00:28:13;11.70;99.90
57058;DHT22;74999;52.848;6.748;2024-02-15T00:30:39;11.60;99.90
57058;DHT22;74999;52.848;6.748;2024-02-15T00:33:05;11.70;99.90
57058;DHT22;74999;52.848;6.748;2024-02-15T00:35:31;11.60;99.90
57058;DHT22;74999;52.848;6.748;2024-02-15T00:37:56;11.70;99.90
57058;DHT22;74999;52.848;6.748;2024-02-15T00:40:22;11.70;99.90
57058;DHT22;74999;52.848;6.748;2024-02-15T00:42:48;11.60;99.90
57058;DHT22;74999;52.848;6.748;2024-02-15T00:45:14;11.70;99.90
57058;DHT22;74999;52.848;6.748;2024-02-15T00:47:39;11.50;99.90
57058;DHT22;74999;52.848;6.748;2024-02-15T00:50:07;11.60;99.90
57058;DHT22;74999;52.848;6.748;2024-02-15T00:52:34;11.60;99.90
57058;DHT22;74999;52.848;6.748;2024-02-15T00:54:59;11.60;99.90
57058;DHT22;74999;52.848;6.748;2024-02-15T00:57:25;11.70;99.90
57058;DHT22;74999;52.848;6.748;2024-02-15T00:59:51;11.60;99.90
57058;DHT22;74999;52.848;6.748;2024-02-15T01:02:17;11.60;99.90
57058;DHT22;74999;52.848;6.748;2024-02-15T01:04:43;11.60;99.90
57058;DHT22;74999;52.848;6.748;2024-02-15T01:07:10;11.50;99.90
57058;DHT22;74999;52.848;6.748;2024-02-15T01:09:36;11.50;99.90
57058;DHT22;74999;52.848;6.748;2024-02-15T01:12:02;11.60;99.90
57058;DHT22;74999;52.848;6.748;2024-02-15T01:14:29;11.70;99.90
57058;DHT22;74999;52.848;6.748;2024-02-15T01:16:56;12.20;99.90
57058;DHT22;74999;52.848;6.748;2024-02-15T01:19:22;11.50;99.90
57058;DHT22;74999;52.848;6.748;2024-02-15T01:21:47;11.50;99.90
57058;DHT22;74999;52.848;6.748;2024-02-15T01:24:13;11.50;99.90
57058;DHT22;74999;52.848;6.748;2024-02-15T01:26:38;11.60;99.90
57058;DHT22;74999;52.848;6.748;2024-02-15T01:29:04;11.50;99.90
57058;DHT22;74999;52.848;6.748;2024-02-15T01:31:30;11.50;99.90
57058;DHT22;74999;52.848;6.748;2024-02-15T01:33:55;11.50;99.90
57058;DHT22;74999;52.848;6.748;2024-02-15T01:36:21;11.60;99.90
57058;DHT22;74999;52.848;6.748;2024-02-15T01:38:47;11.60;99.90
57058;DHT22;74999;52.848;6.748;2024-02-15T01:41:12;11.50;99.90
57058;DHT22;74999;52.848;6.748;2024-02-15T01:43:43;11.40;99.90
57058;DHT22;74999;52.848;6.748;2024-02-15T01:46:10;11.50;99.90
57058;DHT22;74999;52.848;6.748;2024-02-15T01:48:37;11.40;99.90
57058;DHT22;74999;52.848;6.748;2024-02-15T01:51:06;11.50;99.90
57058;DHT22;74999;52.848;6.748;2024-02-15T01:53:32;11.50;99.90
57058;DHT22;74999;52.848;6.748;2024-02-15T01:55:58;11.50;99.90
57058;DHT22;74999;52.848;6.748;2024-02-15T01:58:26;11.50;99.90
57058;DHT22;74999;52.848;6.748;2024-02-15T02:00:53;11.50;99.90
57058;DHT22;74999;52.848;6.748;2024-02-15T02:03:21;11.50;99.90
57058;DHT22;74999;52.848;6.748;2024-02-15T02:05:47;11.50;99.90
57058;DHT22;74999;52.848;6.748;2024-02-15T02:08:12;11.60;99.90
57058;DHT22;74999;52.848;6.748;2024-02-15T02:10:39;11.50;99.90
57058;DHT22;74999;52.848;6.748;2024-02-15T02:13:05;11.50;99.90
57058;DHT22;74999;52.848;6.748;2024-02-15T02:15:34;11.50;99.90
57058;DHT22;74999;52.848;6.748;2024-02-15T02:18:00;11.50;99.90
57058;DHT22;74999;52.848;6.748;2024-02-15T02:20:26;11.50;99.90
57058;DHT22;74999;52.848;6.748;2024-02-15T02:22:54;11.50;99.90
57058;DHT22;74999;52.848;6.748;2024-02-15T02:25:25;11.50;99.90
57058;DHT22;74999;52.848;6.748;2024-02-15T02:27:55;11.50;99.90
57058;DHT22;74999;52.848;6.748;2024-02-15T02:30:21;11.80;99.90
57058;DHT22;74999;52.848;6.748;2024-02-15T02:32:48;11.80;99.90
57058;DHT22;74999;52.848;6.748;2024-02-15T02:35:13;11.60;99.90
57058;DHT22;74999;52.848;6.748;2024-02-15T02:37:41;11.60;99.90
57058;DHT22;74999;52.848;6.748;2024-02-15T02:40:08;11.90;99.90
57058;DHT22;74999;52.848;6.748;2024-02-15T02:42:48;11.50;99.90
57058;DHT22;74999;52.848;6.748;2024-02-15T02:45:13;11.50;99.90
57058;DHT22;74999;52.848;6.748;2024-02-15T02:47:39;11.60;99.90
57058;DHT22;74999;52.848;6.748;2024-02-15T02:50:05;11.70;99.90
57058;DHT22;74999;52.848;6.748;2024-02-15T02:52:31;11.50;99.90
57058;DHT22;74999;52.848;6.748;2024-02-15T02:54:57;11.50;99.90
57058;DHT22;74999;52.848;6.748;2024-02-15T02:57:23;11.60;99.90
57058;DHT22;74999;52.848;6.748;2024-02-15T02:59:49;11.50;99.90
57058;DHT22;74999;52.848;6.748;2024-02-15T03:02:14;11.50;99.90
57058;DHT22;74999;52.848;6.748;2024-02-15T03:04:40;11.70;99.90
57058;DHT22;74999;52.848;6.748;2024-02-15T03:07:06;11.60;99.90
57058;DHT22;74999;52.848;6.748;2024-02-15T03:09:32;11.60;99.90
57058;DHT22;74999;52.848;6.748;2024-02-15T03:11:59;10.90;99.90
57058;DHT22;74999;52.848;6.748;2024-02-15T03:14:26;11.60;99.90
57058;DHT22;74999;52.848;6.748;2024-02-15T03:16:52;11.70;99.90
57058;DHT22;74999;52.848;6.748;2024-02-15T03:19:17;11.70;99.90
57058;DHT22;74999;52.848;6.748;2024-02-15T03:21:43;11.60;99.90
57058;DHT22;74999;52.848;6.748;2024-02-15T03:24:12;11.60;99.90
57058;DHT22;74999;52.848;6.748;2024-02-15T03:26:37;11.80;99.90
57058;DHT22;74999;52.848;6.748;2024-02-15T03:29:04;11.70;99.90
57058;DHT22;74999;52.848;6.748;2024-02-15T03:31:29;11.70;99.90
57058;DHT22;74999;52.848;6.748;2024-02-15T03:33:58;11.60;99.90
57058;DHT22;74999;52.848;6.748;2024-02-15T03:36:24;12.40;99.90
57058;DHT22;74999;52.848;6.748;2024-02-15T03:38:50;12.50;99.90
57058;DHT22;74999;52.848;6.748;2024-02-15T03:41:19;11.70;99.90
57058;DHT22;74999;52.848;6.748;2024-02-15T03:43:45;11.70;99.90
57058;DHT22;74999;52.848;6.748;2024-02-15T03:46:12;11.80;99.90
57058;DHT22;74999;52.848;6.748;2024-02-15T03:48:41;11.70;99.90
57058;DHT22;74999;52.848;6.748;2024-02-15T03:51:07;12.60;99.90
57058;DHT22;74999;52.848;6.748;2024-02-15T03:53:34;11.90;99.90
57058;DHT22;74999;52.848;6.748;2024-02-15T03:56:04;11.70;99.90
57058;DHT22;74999;52.848;6.748;2024-02-15T03:58:29;11.80;99.90
57058;DHT22;74999;52.848;6.748;2024-02-15T04:00:58;12.10;99.90
57058;DHT22;74999;52.848;6.748;2024-02-15T04:03:24;11.70;99.90
57058;DHT22;74999;52.848;6.748;2024-02-15T04:05:50;11.70;99.90
57058;DHT22;74999;52.848;6.748;2024-02-15T04:08:15;11.80;99.90
57058;DHT22;74999;52.848;6.748;2024-02-15T04:10:42;11.80;99.90
57058;DHT22;74999;52.848;6.748;2024-02-15T04:13:08;11.90;99.90
57058;DHT22;74999;52.848;6.748;2024-02-15T04:15:33;11.80;99.90
57058;DHT22;74999;52.848;6.748;2024-02-15T04:18:00;11.80;99.90
57058;DHT22;74999;52.848;6.748;2024-02-15T04:20:26;12.50;99.90
57058;DHT22;74999;52.848;6.748;2024-02-15T04:22:52;11.80;99.90
57058;DHT22;74999;52.848;6.748;2024-02-15T04:25:18;12.00;99.90
57058;DHT22;74999;52.848;6.748;2024-02-15T04:27:46;11.80;99.90
57058;DHT22;74999;52.848;6.748;2024-02-15T04:30:23;12.30;99.90
57058;DHT22;74999;52.848;6.748;2024-02-15T04:32:49;12.60;99.90
57058;DHT22;74999;52.848;6.748;2024-02-15T04:35:15;11.90;99.90
57058;DHT22;74999;52.848;6.748;2024-02-15T04:37:41;11.90;99.90
57058;DHT22;74999;52.848;6.748;2024-02-15T04:40:07;11.90;99.90
57058;DHT22;74999;52.848;6.748;2024-02-15T04:42:36;11.90;99.90
57058;DHT22;74999;52.848;6.748;2024-02-15T04:45:06;11.90;99.90
57058;DHT22;74999;52.848;6.748;2024-02-15T04:47:35;12.00;99.90
57058;DHT22;74999;52.848;6.748;2024-02-15T04:50:01;12.00;99.90
57058;DHT22;74999;52.848;6.748;2024-02-15T04:52:27;12.00;99.90
57058;DHT22;74999;52.848;6.748;2024-02-15T04:55:01;11.90;99.90
57058;DHT22;74999;52.848;6.748;2024-02-15T04:57:30;11.90;99.90
57058;DHT22;74999;52.848;6.748;2024-02-15T04:59:55;12.00;99.90
57058;DHT22;74999;52.848;6.748;2024-02-15T05:02:21;11.90;99.90
57058;DHT22;74999;52.848;6.748;2024-02-15T05:04:50;12.00;99.90
57058;DHT22;74999;52.848;6.748;2024-02-15T05:07:21;12.00;99.90
57058;DHT22;74999;52.848;6.748;2024-02-15T05:09:48;12.00;99.90
57058;DHT22;74999;52.848;6.748;2024-02-15T05:12:22;11.90;99.90
57058;DHT22;74999;52.848;6.748;2024-02-15T05:14:48;11.90;99.90
57058;DHT22;74999;52.848;6.748;2024-02-15T05:17:14;12.00;99.90
57058;DHT22;74999;52.848;6.748;2024-02-15T05:19:40;12.00;99.90
57058;DHT22;74999;52.848;6.748;2024-02-15T05:22:05;12.00;99.90
57058;DHT22;74999;52.848;6.748;2024-02-15T05:24:32;12.00;99.90
57058;DHT22;74999;52.848;6.748;2024-02-15T05:26:58;12.00;99.90
57058;DHT22;74999;52.848;6.748;2024-02-15T05:29:24;12.00;99.90
57058;DHT22;74999;52.848;6.748;2024-02-15T05:31:49;12.00;99.90
57058;DHT22;74999;52.848;6.748;2024-02-15T05:34:19;12.00;99.90
57058;DHT22;74999;52.848;6.748;2024-02-15T05:36:45;12.00;99.90
57058;DHT22;74999;52.848;6.748;2024-02-15T05:39:13;12.00;99.90
57058;DHT22;74999;52.848;6.748;2024-02-15T05:41:40;12.00;99.90
57058;DHT22;74999;52.848;6.748;2024-02-15T05:44:06;12.10;99.90
57058;DHT22;74999;52.848;6.748;2024-02-15T05:46:33;12.00;99.90
57058;DHT22;74999;52.848;6.748;2024-02-15T05:49:02;12.10;99.90
57058;DHT22;74999;52.848;6.748;2024-02-15T05:51:30;12.30;99.90
57058;DHT22;74999;52.848;6.748;2024-02-15T05:53:56;12.00;99.90
57058;DHT22;74999;52.848;6.748;2024-02-15T05:56:24;12.50;99.90
57058;DHT22;74999;52.848;6.748;2024-02-15T05:58:51;12.10;99.90
57058;DHT22;74999;52.848;6.748;2024-02-15T06:01:17;11.90;99.90
57058;DHT22;74999;52.848;6.748;2024-02-15T06:03:43;12.00;99.90
57058;DHT22;74999;52.848;6.748;2024-02-15T06:06:09;12.00;99.90
57058;DHT22;74999;52.848;6.748;2024-02-15T06:08:36;12.00;99.90
57058;DHT22;74999;52.848;6.748;2024-02-15T06:11:03;12.00;99.90
57058;DHT22;74999;52.848;6.748;2024-02-15T06:13:29;12.00;99.90
57058;DHT22;74999;52.848;6.748;2024-02-15T06:15:55;12.00;99.90
57058;DHT22;74999;52.848;6.748;2024-02-15T06:18:28;12.00;99.90
57058;DHT22;74999;52.848;6.748;2024-02-15T06:20:57;12.00;99.90
57058;DHT22;74999;52.848;6.748;2024-02-15T06:23:23;11.90;99.90
57058;DHT22;74999;52.848;6.748;2024-02-15T06:25:52;12.00;99.90
57058;DHT22;74999;52.848;6.748;2024-02-15T06:28:19;12.10;99.90
57058;DHT22;74999;52.848;6.748;2024-02-15T06:31:03;12.00;99.90
57058;DHT22;74999;52.848;6.748;2024-02-15T06:33:47;12.00;99.90
57058;DHT22;74999;52.848;6.748;2024-02-15T06:36:31;11.90;99.90
57058;DHT22;74999;52.848;6.748;2024-02-15T06:39:16;12.00;99.90
57058;DHT22;74999;52.848;6.748;2024-02-15T06:42:00;12.10;99.90
57058;DHT22;74999;52.848;6.748;2024-02-15T06:44:27;12.50;99.90
57058;DHT22;74999;52.848;6.748;2024-02-15T06:46:52;11.90;99.90
57058;DHT22;74999;52.848;6.748;2024-02-15T06:49:18;12.00;99.90
57058;DHT22;74999;52.848;6.748;2024-02-15T06:51:44;11.90;99.90
57058;DHT22;74999;52.848;6.748;2024-02-15T06:54:12;12.00;99.90
57058;DHT22;74999;52.848;6.748;2024-02-15T06:56:38;11.90;99.90
57058;DHT22;74999;52.848;6.748;2024-02-15T06:59:05;11.90;99.90
57058;DHT22;74999;52.848;6.748;2024-02-15T07:01:30;12.00;99.90
57058;DHT22;74999;52.848;6.748;2024-02-15T07:03:59;13.00;99.90
57058;DHT22;74999;52.848;6.748;2024-02-15T07:06:25;11.90;99.90
57058;DHT22;74999;52.848;6.748;2024-02-15T07:08:52;11.90;99.90
57058;DHT22;74999;52.848;6.748;2024-02-15T07:11:20;11.90;99.90
57058;DHT22;74999;52.848;6.748;2024-02-15T07:13:47;12.00;99.90
57058;DHT22;74999;52.848;6.748;2024-02-15T07:16:13;11.90;99.90
57058;DHT22;74999;52.848;6.748;2024-02-15T07:18:40;12.00;99.90
57058;DHT22;74999;52.848;6.748;2024-02-15T07:21:06;12.00;99.90
57058;DHT22;74999;52.848;6.748;2024-02-15T07:23:36;11.90;99.90
57058;DHT22;74999;52.848;6.748;2024-02-15T07:26:02;11.90;99.90
57058;DHT22;74999;52.848;6.748;2024-02-15T07:28:29;12.00;99.90
57058;DHT22;74999;52.848;6.748;2024-02-15T07:30:56;12.00;99.90
57058;DHT22;74999;52.848;6.748;2024-02-15T07:33:22;12.00;99.90
57058;DHT22;74999;52.848;6.748;2024-02-15T07:35:49;12.00;99.90
57058;DHT22;74999;52.848;6.748;2024-02-15T07:38:19;12.10;99.90
57058;DHT22;74999;52.848;6.748;2024-02-15T07:40:45;12.00;99.90
57058;DHT22;74999;52.848;6.748;2024-02-15T07:43:10;11.90;99.90
57058;DHT22;74999;52.848;6.748;2024-02-15T07:45:36;12.00;99.90
57058;DHT22;74999;52.848;6.748;2024-02-15T07:48:05;11.90;99.90
57058;DHT22;74999;52.848;6.748;2024-02-15T07:50:31;12.00;99.90
57058;DHT22;74999;52.848;6.748;2024-02-15T07:52:57;11.90;99.90
57058;DHT22;74999;52.848;6.748;2024-02-15T07:55:23;12.10;99.90
57058;DHT22;74999;52.848;6.748;2024-02-15T07:57:50;12.00;99.90
57058;DHT22;74999;52.848;6.748;2024-02-15T08:00:17;11.90;99.90
57058;DHT22;74999;52.848;6.748;2024-02-15T08:02:43;12.00;99.90
57058;DHT22;74999;52.848;6.748;2024-02-15T08:05:10;12.10;99.90
57058;DHT22;74999;52.848;6.748;2024-02-15T08:07:44;12.00;99.90
57058;DHT22;74999;52.848;6.748;2024-02-15T08:10:11;12.00;99.90
57058;DHT22;74999;52.848;6.748;2024-02-15T08:12:43;12.00;99.90
57058;DHT22;74999;52.848;6.748;2024-02-15T08:15:10;12.00;99.90
57058;DHT22;74999;52.848;6.748;2024-02-15T08:17:44;12.10;99.90
57058;DHT22;74999;52.848;6.748;2024-02-15T08:20:13;12.00;99.90
57058;DHT22;74999;52.848;6.748;2024-02-15T08:22:39;12.00;99.90
57058;DHT22;74999;52.848;6.748;2024-02-15T08:25:09;12.00;99.90
57058;DHT22;74999;52.848;6.748;2024-02-15T08:27:37;12.00;99.90
57058;DHT22;74999;52.848;6.748;2024-02-15T08:30:08;12.00;99.90
57058;DHT22;74999;52.848;6.748;2024-02-15T08:32:35;12.10;99.90
57058;DHT22;74999;52.848;6.748;2024-02-15T08:35:00;12.10;99.90
57058;DHT22;74999;52.848;6.748;2024-02-15T08:37:26;12.00;99.90
57058;DHT22;74999;52.848;6.748;2024-02-15T08:39:51;12.00;99.90
57058;DHT22;74999;52.848;6.748;2024-02-15T08:42:18;12.10;99.90
57058;DHT22;74999;52.848;6.748;2024-02-15T08:44:48;12.00;99.90
57058;DHT22;74999;52.848;6.748;2024-02-15T08:47:13;12.00;99.90
57058;DHT22;74999;52.848;6.748;2024-02-15T08:49:39;12.10;99.90
57058;DHT22;74999;52.848;6.748;2024-02-15T08:52:06;12.00;99.90
57058;DHT22;74999;52.848;6.748;2024-02-15T08:54:33;12.10;99.90
57058;DHT22;74999;52.848;6.748;2024-02-15T08:56:59;12.10;99.90
57058;DHT22;74999;52.848;6.748;2024-02-15T08:59:26;12.90;99.90
57058;DHT22;74999;52.848;6.748;2024-02-15T09:01:53;12.30;99.90
57058;DHT22;74999;52.848;6.748;2024-02-15T09:04:20;12.10;99.90
57058;DHT22;74999;52.848;6.748;2024-02-15T09:06:47;12.10;99.90
57058;DHT22;74999;52.848;6.748;2024-02-15T09:09:12;12.20;99.90
57058;DHT22;74999;52.848;6.748;2024-02-15T09:11:38;12.10;99.90
57058;DHT22;74999;52.848;6.748;2024-02-15T09:14:06;12.10;99.90
57058;DHT22;74999;52.848;6.748;2024-02-15T09:16:35;12.20;99.90
57058;DHT22;74999;52.848;6.748;2024-02-15T09:19:01;12.10;99.90
57058;DHT22;74999;52.848;6.748;2024-02-15T09:21:27;12.10;99.90
57058;DHT22;74999;52.848;6.748;2024-02-15T09:23:56;12.20;99.90
57058;DHT22;74999;52.848;6.748;2024-02-15T09:26:30;12.20;99.90
57058;DHT22;74999;52.848;6.748;2024-02-15T09:28:56;12.20;99.90
57058;DHT22;74999;52.848;6.748;2024-02-15T09:31:21;12.30;99.90
57058;DHT22;74999;52.848;6.748;2024-02-15T09:33:47;12.10;99.90
57058;DHT22;74999;52.848;6.748;2024-02-15T09:36:13;12.20;99.90
57058;DHT22;74999;52.848;6.748;2024-02-15T09:38:39;12.20;99.90
57058;DHT22;74999;52.848;6.748;2024-02-15T09:41:04;12.20;99.90
57058;DHT22;74999;52.848;6.748;2024-02-15T09:43:34;12.40;99.90
57058;DHT22;74999;52.848;6.748;2024-02-15T09:46:00;12.30;99.90
57058;DHT22;74999;52.848;6.748;2024-02-15T09:48:29;12.30;99.90
57058;DHT22;74999;52.848;6.748;2024-02-15T09:50:56;12.30;99.90
57058;DHT22;74999;52.848;6.748;2024-02-15T09:53:23;12.40;99.90
57058;DHT22;74999;52.848;6.748;2024-02-15T09:55:53;12.30;99.90
57058;DHT22;74999;52.848;6.748;2024-02-15T09:58:19;12.20;99.90
57058;DHT22;74999;52.848;6.748;2024-02-15T10:00:45;12.60;99.90
57058;DHT22;74999;52.848;6.748;2024-02-15T10:03:12;12.40;99.90
57058;DHT22;74999;52.848;6.748;2024-02-15T10:05:39;12.30;99.90
57058;DHT22;74999;52.848;6.748;2024-02-15T10:08:07;12.30;99.90
57058;DHT22;74999;52.848;6.748;2024-02-15T10:10:33;12.30;99.90
57058;DHT22;74999;52.848;6.748;2024-02-15T10:12:59;12.50;99.90
57058;DHT22;74999;52.848;6.748;2024-02-15T10:15:31;12.40;99.90
57058;DHT22;74999;52.848;6.748;2024-02-15T10:17:58;12.40;99.90
57058;DHT22;74999;52.848;6.748;2024-02-15T10:20:26;12.40;99.90
57058;DHT22;74999;52.848;6.748;2024-02-15T10:22:59;12.50;99.90
57058;DHT22;74999;52.848;6.748;2024-02-15T10:25:34;12.50;99.90
57058;DHT22;74999;52.848;6.748;2024-02-15T10:28:04;12.40;99.90
57058;DHT22;74999;52.848;6.748;2024-02-15T10:30:36;12.40;99.90
57058;DHT22;74999;52.848;6.748;2024-02-15T10:33:03;12.50;99.90
57058;DHT22;74999;52.848;6.748;2024-02-15T10:35:29;12.50;99.90
57058;DHT22;74999;52.848;6.748;2024-02-15T10:38:06;12.50;99.90
57058;DHT22;74999;52.848;6.748;2024-02-15T10:40:36;12.60;99.90
57058;DHT22;74999;52.848;6.748;2024-02-15T10:43:03;12.50;99.90
57058;DHT22;74999;52.848;6.748;2024-02-15T10:45:34;12.60;99.90
57058;DHT22;74999;52.848;6.748;2024-02-15T10:48:02;12.50;99.90
57058;DHT22;74999;52.848;6.748;2024-02-15T10:50:30;12.60;99.90
57058;DHT22;74999;52.848;6.748;2024-02-15T10:52:57;12.80;99.90
57058;DHT22;74999;52.848;6.748;2024-02-15T10:55:53;12.60;99.90
57058;DHT22;74999;52.848;6.748;2024-02-15T10:58:19;12.60;99.90
57058;DHT22;74999;52.848;6.748;2024-02-15T11:00:47;12.60;99.90
57058;DHT22;74999;52.848;6.748;2024-02-15T11:03:25;12.60;99.90
57058;DHT22;74999;52.848;6.748;2024-02-15T11:06:00;12.60;99.90
57058;DHT22;74999;52.848;6.748;2024-02-15T11:08:26;12.60;99.90
57058;DHT22;74999;52.848;6.748;2024-02-15T11:10:53;12.70;99.90
57058;DHT22;74999;52.848;6.748;2024-02-15T11:13:20;12.70;99.90
57058;DHT22;74999;52.848;6.748;2024-02-15T11:15:46;12.70;99.90
57058;DHT22;74999;52.848;6.748;2024-02-15T11:18:47;12.80;99.90
57058;DHT22;74999;52.848;6.748;2024-02-15T11:21:17;12.60;99.90
57058;DHT22;74999;52.848;6.748;2024-02-15T11:23:46;12.80;99.90
57058;DHT22;74999;52.848;6.748;2024-02-15T11:26:43;12.80;99.90
57058;DHT22;74999;52.848;6.748;2024-02-15T11:35:14;12.70;99.90
57058;DHT22;74999;52.848;6.748;2024-02-15T11:40:28;12.80;99.90
57058;DHT22;74999;52.848;6.748;2024-02-15T11:42:57;12.80;99.90
57058;DHT22;74999;52.848;6.748;2024-02-15T11:45:27;12.70;99.90
57058;DHT22;74999;52.848;6.748;2024-02-15T11:48:03;12.80;99.90
57058;DHT22;74999;52.848;6.748;2024-02-15T11:50:34;12.80;99.90
57058;DHT22;74999;52.848;6.748;2024-02-15T11:53:04;12.70;99.90
57058;DHT22;74999;52.848;6.748;2024-02-15T11:55:40;12.80;99.90
57058;DHT22;74999;52.848;6.748;2024-02-15T11:58:07;12.80;99.90
57058;DHT22;74999;52.848;6.748;2024-02-15T12:00:33;12.70;99.90
57058;DHT22;74999;52.848;6.748;2024-02-15T12:03:18;12.80;99.90
57058;DHT22;74999;52.848;6.748;2024-02-15T12:06:03;12.70;99.90
57058;DHT22;74999;52.848;6.748;2024-02-15T12:08:49;12.70;99.90
57058;DHT22;74999;52.848;6.748;2024-02-15T12:11:34;12.70;99.90
57058;DHT22;74999;52.848;6.748;2024-02-15T12:14:18;12.80;99.90
57058;DHT22;74999;52.848;6.748;2024-02-15T12:17:10;12.70;99.90
57058;DHT22;74999;52.848;6.748;2024-02-15T12:19:57;12.70;99.90
57058;DHT22;74999;52.848;6.748;2024-02-15T12:22:33;12.70;99.90
57058;DHT22;74999;52.848;6.748;2024-02-15T12:25:02;12.70;99.90
57058;DHT22;74999;52.848;6.748;2024-02-15T12:27:38;12.60;99.90
57058;DHT22;74999;52.848;6.748;2024-02-15T12:30:05;12.70;99.90
57058;DHT22;74999;52.848;6.748;2024-02-15T12:32:32;12.70;99.90
57058;DHT22;74999;52.848;6.748;2024-02-15T12:35:12;12.60;99.90
57058;DHT22;74999;52.848;6.748;2024-02-15T12:38:09;12.70;99.90
57058;DHT22;74999;52.848;6.748;2024-02-15T12:40:39;12.60;99.90
57058;DHT22;74999;52.848;6.748;2024-02-15T12:43:06;12.70;99.90
57058;DHT22;74999;52.848;6.748;2024-02-15T12:45:35;12.70;99.90
57058;DHT22;74999;52.848;6.748;2024-02-15T12:48:03;12.70;99.90
57058;DHT22;74999;52.848;6.748;2024-02-15T12:50:29;12.60;99.90
57058;DHT22;74999;52.848;6.748;2024-02-15T12:52:55;13.10;99.90
57058;DHT22;74999;52.848;6.748;2024-02-15T12:55:32;12.60;99.90
57058;DHT22;74999;52.848;6.748;2024-02-15T12:58:07;12.60;99.90
57058;DHT22;74999;52.848;6.748;2024-02-15T13:00:39;12.60;99.90
57058;DHT22;74999;52.848;6.748;2024-02-15T13:03:06;12.60;99.90
57058;DHT22;74999;52.848;6.748;2024-02-15T13:05:36;12.60;99.90
57058;DHT22;74999;52.848;6.748;2024-02-15T13:08:03;12.60;99.90
57058;DHT22;74999;52.848;6.748;2024-02-15T13:10:36;12.60;99.90
57058;DHT22;74999;52.848;6.748;2024-02-15T13:13:02;12.60;99.90
57058;DHT22;74999;52.848;6.748;2024-02-15T13:15:27;12.60;99.90
57058;DHT22;74999;52.848;6.748;2024-02-15T13:17:58;11.40;99.90
57058;DHT22;74999;52.848;6.748;2024-02-15T13:20:24;13.00;99.90
57058;DHT22;74999;52.848;6.748;2024-02-15T13:23:04;12.70;99.90
57058;DHT22;74999;52.848;6.748;2024-02-15T13:25:49;12.60;99.90
57058;DHT22;74999;52.848;6.748;2024-02-15T13:28:15;12.70;99.90
57058;DHT22;74999;52.848;6.748;2024-02-15T13:30:41;12.60;99.90
57058;DHT22;74999;52.848;6.748;2024-02-15T13:33:10;12.70;99.90
57058;DHT22;74999;52.848;6.748;2024-02-15T13:35:35;12.70;99.90
57058;DHT22;74999;52.848;6.748;2024-02-15T13:38:01;12.80;99.90
57058;DHT22;74999;52.848;6.748;2024-02-15T13:40:28;12.60;99.90
57058;DHT22;74999;52.848;6.748;2024-02-15T13:42:57;12.70;99.90
57058;DHT22;74999;52.848;6.748;2024-02-15T13:48:21;12.70;99.90
57058;DHT22;74999;52.848;6.748;2024-02-15T13:50:51;12.70;99.90
57058;DHT22;74999;52.848;6.748;2024-02-15T13:53:18;12.70;99.90
57058;DHT22;74999;52.848;6.748;2024-02-15T13:55:44;12.70;99.90
57058;DHT22;74999;52.848;6.748;2024-02-15T13:58:10;12.60;99.90
57058;DHT22;74999;52.848;6.748;2024-02-15T14:00:38;12.90;99.90
57058;DHT22;74999;52.848;6.748;2024-02-15T14:03:07;12.70;99.90
57058;DHT22;74999;52.848;6.748;2024-02-15T14:05:35;12.60;99.90
57058;DHT22;74999;52.848;6.748;2024-02-15T14:08:03;12.70;99.90
57058;DHT22;74999;52.848;6.748;2024-02-15T14:10:34;12.60;99.90
57058;DHT22;74999;52.848;6.748;2024-02-15T14:13:03;13.10;99.90
57058;DHT22;74999;52.848;6.748;2024-02-15T14:15:37;13.40;99.90
57058;DHT22;74999;52.848;6.748;2024-02-15T14:18:07;12.70;99.90
57058;DHT22;74999;52.848;6.748;2024-02-15T14:20:36;12.70;99.90
57058;DHT22;74999;52.848;6.748;2024-02-15T14:23:03;12.60;99.90
57058;DHT22;74999;52.848;6.748;2024-02-15T14:25:31;12.70;99.90
57058;DHT22;74999;52.848;6.748;2024-02-15T14:27:58;12.60;99.90
57058;DHT22;74999;52.848;6.748;2024-02-15T14:30:24;12.60;99.90
57058;DHT22;74999;52.848;6.748;2024-02-15T14:33:29;12.70;99.90
57058;DHT22;74999;52.848;6.748;2024-02-15T14:35:55;12.80;99.90
57058;DHT22;74999;52.848;6.748;2024-02-15T14:38:21;12.70;99.90
57058;DHT22;74999;52.848;6.748;2024-02-15T14:40:48;12.90;99.90
57058;DHT22;74999;52.848;6.748;2024-02-15T14:43:22;12.90;99.90
57058;DHT22;74999;52.848;6.748;2024-02-15T14:45:48;12.70;99.90
57058;DHT22;74999;52.848;6.748;2024-02-15T14:48:14;12.70;99.90
57058;DHT22;74999;52.848;6.748;2024-02-15T14:50:43;12.80;99.90
57058;DHT22;74999;52.848;6.748;2024-02-15T14:53:09;12.80;99.90
57058;DHT22;74999;52.848;6.748;2024-02-15T14:55:36;12.70;99.90
57058;DHT22;74999;52.848;6.748;2024-02-15T14:58:05;12.80;99.90
57058;DHT22;74999;52.848;6.748;2024-02-15T15:00:35;12.80;99.90
57058;DHT22;74999;52.848;6.748;2024-02-15T15:03:03;12.80;99.90
57058;DHT22;74999;52.848;6.748;2024-02-15T15:05:29;12.80;99.90
57058;DHT22;74999;52.848;6.748;2024-02-15T15:08:13;13.00;99.90
57058;DHT22;74999;52.848;6.748;2024-02-15T15:10:57;13.70;99.90
57058;DHT22;74999;52.848;6.748;2024-02-15T15:13:42;12.90;99.90
57058;DHT22;74999;52.848;6.748;2024-02-15T15:16:07;13.20;99.90
57058;DHT22;74999;52.848;6.748;2024-02-15T15:18:33;12.90;99.90
57058;DHT22;74999;52.848;6.748;2024-02-15T15:21:02;12.90;99.90
57058;DHT22;74999;52.848;6.748;2024-02-15T15:23:28;13.00;99.90
57058;DHT22;74999;52.848;6.748;2024-02-15T15:26:03;13.00;99.90
57058;DHT22;74999;52.848;6.748;2024-02-15T15:28:28;13.00;99.90
57058;DHT22;74999;52.848;6.748;2024-02-15T15:30:54;13.00;99.90
57058;DHT22;74999;52.848;6.748;2024-02-15T15:33:20;13.00;99.90
57058;DHT22;74999;52.848;6.748;2024-02-15T15:35:46;13.10;99.90
57058;DHT22;74999;52.848;6.748;2024-02-15T15:38:12;13.00;99.90
57058;DHT22;74999;52.848;6.748;2024-02-15T15:40:37;13.10;99.90
57058;DHT22;74999;52.848;6.748;2024-02-15T15:43:04;13.00;99.90
57058;DHT22;74999;52.848;6.748;2024-02-15T15:45:33;13.00;99.90
57058;DHT22;74999;52.848;6.748;2024-02-15T15:47:59;13.00;99.90
57058;DHT22;74999;52.848;6.748;2024-02-15T15:50:26;13.10;99.90